createdAt,value
2023-06-25T00:00:01.834Z,6.73
2023-06-25T00:02:31.023Z,7.17
2023-06-25T00:04:59.608Z,7.10
2023-06-25T00:07:27.503Z,7.37
2023-06-25T00:09:55.988Z,7.60
2023-06-25T00:12:24.226Z,7.40
2023-06-25T00:14:52.009Z,7.87
2023-06-25T00:17:20.520Z,8.30
2023-06-25T00:19:49.892Z,7.70
2023-06-25T00:22:17.785Z,7.47
2023-06-25T00:24:45.751Z,7.37
2023-06-25T00:27:13.625Z,8.23
2023-06-25T00:29:41.714Z,7.40
2023-06-25T00:32:10.407Z,7.53
2023-06-25T00:34:42.403Z,7.87
2023-06-25T00:37:18.368Z,7.47
2023-06-25T00:39:47.961Z,7.23
2023-06-25T00:42:17.071Z,7.40
2023-06-25T00:44:45.662Z,7.23
2023-06-25T00:47:15.782Z,7.20
2023-06-25T00:49:44.351Z,7.43
2023-06-25T00:52:14.978Z,7.60
2023-06-25T00:54:45.963Z,6.90
2023-06-25T00:57:16.962Z,7.37
2023-06-25T00:59:46.391Z,7.23
2023-06-25T01:02:20.177Z,7.13
2023-06-25T01:04:58.982Z,7.27
2023-06-25T01:07:29.628Z,7.60
2023-06-25T01:09:58.525Z,8.00
2023-06-25T01:12:27.937Z,7.67
2023-06-25T01:14:55.960Z,7.20
2023-06-25T01:17:23.980Z,7.30
2023-06-25T01:19:53.937Z,7.83
2023-06-25T01:22:30.747Z,7.87
2023-06-25T01:24:59.013Z,7.43
2023-06-25T01:27:26.954Z,7.67
2023-06-25T01:29:55.578Z,8.53
2023-06-25T01:32:25.412Z,8.57
2023-06-25T01:34:53.854Z,8.00
2023-06-25T01:37:21.964Z,8.20
2023-06-25T01:39:53.569Z,6.70
2023-06-25T01:42:21.331Z,7.17
2023-06-25T01:44:49.552Z,7.53
2023-06-25T01:47:17.490Z,7.03
2023-06-25T01:49:45.391Z,7.40
2023-06-25T01:52:13.168Z,7.23
2023-06-25T01:54:41.267Z,7.50
2023-06-25T01:57:10.792Z,6.97
2023-06-25T01:59:38.617Z,7.40
2023-06-25T02:02:07.053Z,7.40
2023-06-25T02:04:35.468Z,7.60
2023-06-25T02:07:03.618Z,7.30
2023-06-25T02:09:31.501Z,6.67
2023-06-25T02:11:59.529Z,7.13
2023-06-25T02:14:29.367Z,6.97
2023-06-25T02:16:57.190Z,7.43
2023-06-25T02:19:24.892Z,7.07
2023-06-25T02:21:52.923Z,7.17
2023-06-25T02:24:20.968Z,7.30
2023-06-25T02:26:48.700Z,7.00
2023-06-25T02:29:16.550Z,6.47
2023-06-25T02:31:46.246Z,6.80
2023-06-25T02:34:14.631Z,7.07
2023-06-25T02:36:43.328Z,6.70
2023-06-25T02:39:11.449Z,6.67
2023-06-25T02:41:39.179Z,7.37
2023-06-25T02:44:07.053Z,6.90
2023-06-25T02:46:36.706Z,6.67
2023-06-25T02:49:06.208Z,6.50
2023-06-25T02:51:34.457Z,7.03
2023-06-25T02:54:02.505Z,6.53
2023-06-25T02:56:30.778Z,6.43
2023-06-25T02:58:59.834Z,6.17
2023-06-25T03:01:27.920Z,6.50
2023-06-25T03:03:55.777Z,6.60
2023-06-25T03:06:25.566Z,6.53
2023-06-25T03:08:53.235Z,6.97
2023-06-25T03:11:21.003Z,6.80
2023-06-25T03:13:49.687Z,6.40
2023-06-25T03:16:17.698Z,5.80
2023-06-25T03:18:45.812Z,6.33
2023-06-25T03:21:13.587Z,5.67
2023-06-25T03:23:42.863Z,7.33
2023-06-25T03:26:10.872Z,5.83
2023-06-25T03:28:39.239Z,6.13
2023-06-25T03:31:07.167Z,6.77
2023-06-25T03:33:35.497Z,6.00
2023-06-25T03:36:03.344Z,5.73
2023-06-25T03:38:31.282Z,5.90
2023-06-25T03:41:00.805Z,6.17
2023-06-25T03:43:28.870Z,6.07
2023-06-25T03:45:56.579Z,6.03
2023-06-25T03:48:24.574Z,5.73
2023-06-25T03:50:53.082Z,6.03
2023-06-25T03:53:21.250Z,7.00
2023-06-25T03:55:49.279Z,6.07
2023-06-25T03:58:18.727Z,5.47
2023-06-25T04:00:46.959Z,6.20
2023-06-25T04:03:14.895Z,5.80
2023-06-25T04:05:42.971Z,5.73
2023-06-25T04:08:11.001Z,6.03
2023-06-25T04:10:39.346Z,6.00
2023-06-25T04:13:07.185Z,5.17
2023-06-25T04:15:36.899Z,5.60
2023-06-25T04:18:05.342Z,5.20
2023-06-25T04:20:33.491Z,5.67
2023-06-25T04:23:01.373Z,5.30
2023-06-25T04:25:29.136Z,6.10
2023-06-25T04:27:57.444Z,5.50
2023-06-25T04:30:25.475Z,5.27
2023-06-25T04:32:56.063Z,5.93
2023-06-25T04:35:26.568Z,5.50
2023-06-25T04:37:55.495Z,5.67
2023-06-25T04:40:23.190Z,5.47
2023-06-25T04:42:50.881Z,5.63
2023-06-25T04:45:18.900Z,5.13
2023-06-25T04:47:47.033Z,5.37
2023-06-25T04:50:16.784Z,5.47
2023-06-25T04:52:44.648Z,4.83
2023-06-25T04:55:12.537Z,4.97
2023-06-25T04:57:41.583Z,4.60
2023-06-25T05:00:10.761Z,4.97
2023-06-25T05:02:38.560Z,4.57
2023-06-25T05:05:07.727Z,5.13
2023-06-25T05:07:37.357Z,4.30
2023-06-25T05:10:05.880Z,4.97
2023-06-25T05:12:34.115Z,5.17
2023-06-25T05:15:02.285Z,4.80
2023-06-25T05:17:30.420Z,4.70
2023-06-25T05:19:58.287Z,4.97
2023-06-25T05:22:27.097Z,5.10
2023-06-25T05:24:56.792Z,5.00
2023-06-25T05:27:24.693Z,4.97
2023-06-25T05:29:53.214Z,4.23
2023-06-25T05:32:21.614Z,5.33
2023-06-25T05:34:49.812Z,6.63
2023-06-25T05:37:17.739Z,4.93
2023-06-25T05:39:45.600Z,4.80
2023-06-25T05:42:15.543Z,5.67
2023-06-25T05:44:43.366Z,4.80
2023-06-25T05:47:12.171Z,4.83
2023-06-25T05:49:40.172Z,5.07
2023-06-25T05:52:08.777Z,5.53
2023-06-25T05:54:36.837Z,4.67
2023-06-25T05:57:04.830Z,4.97
2023-06-25T05:59:34.329Z,4.97
2023-06-25T06:02:02.660Z,4.90
2023-06-25T06:04:30.944Z,5.33
2023-06-25T06:07:00.148Z,5.00
2023-06-25T06:09:28.291Z,4.67
2023-06-25T06:11:56.148Z,4.80
2023-06-25T06:14:25.339Z,4.60
2023-06-25T06:16:54.741Z,4.97
2023-06-25T06:19:22.451Z,4.87
2023-06-25T06:21:50.496Z,4.93
2023-06-25T06:24:18.752Z,4.50
2023-06-25T06:26:46.964Z,4.83
2023-06-25T06:29:16.351Z,5.30
2023-06-25T06:31:44.561Z,4.43
2023-06-25T06:34:13.996Z,4.20
2023-06-25T06:36:42.089Z,4.60
2023-06-25T06:39:10.070Z,4.60
2023-06-25T06:41:38.120Z,4.73
2023-06-25T06:44:14.430Z,4.70
2023-06-25T06:46:42.803Z,4.03
2023-06-25T06:49:11.080Z,4.50
2023-06-25T06:51:41.357Z,4.37
2023-06-25T06:54:09.134Z,4.17
2023-06-25T06:56:38.367Z,4.43
2023-06-25T06:59:08.655Z,4.30
2023-06-25T07:01:36.573Z,4.53
2023-06-25T07:04:04.581Z,4.90
2023-06-25T07:06:32.314Z,4.37
2023-06-25T07:09:01.750Z,4.20
2023-06-25T07:11:29.535Z,4.33
2023-06-25T07:13:57.562Z,4.27
2023-06-25T07:16:25.716Z,4.20
2023-06-25T07:18:53.402Z,4.37
2023-06-25T07:21:21.450Z,4.80
2023-06-25T07:23:49.212Z,4.47
2023-06-25T07:26:18.953Z,4.27
2023-06-25T07:28:46.925Z,4.43
2023-06-25T07:31:14.783Z,5.13
2023-06-25T07:33:42.607Z,4.20
2023-06-25T07:36:10.644Z,4.07
2023-06-25T07:38:38.447Z,5.47
2023-06-25T07:41:06.290Z,4.53
2023-06-25T07:43:35.958Z,4.40
2023-06-25T07:46:04.026Z,3.83
2023-06-25T07:48:32.548Z,4.30
2023-06-25T07:51:00.423Z,4.37
2023-06-25T07:53:28.269Z,4.70
2023-06-25T07:56:02.940Z,5.13
2023-06-25T07:58:31.793Z,4.10
2023-06-25T08:01:01.616Z,4.13
2023-06-25T08:03:29.693Z,4.00
2023-06-25T08:05:57.593Z,4.10
2023-06-25T08:08:26.024Z,4.60
2023-06-25T08:10:54.017Z,4.40
2023-06-25T08:13:23.015Z,4.50
2023-06-25T08:15:50.936Z,3.97
2023-06-25T08:18:20.319Z,4.33
2023-06-25T08:20:48.197Z,4.63
2023-06-25T08:23:16.104Z,4.30
2023-06-25T08:25:44.510Z,6.03
2023-06-25T08:28:12.189Z,4.57
2023-06-25T08:30:40.137Z,4.23
2023-06-25T08:33:08.788Z,4.30
2023-06-25T08:35:38.681Z,4.13
2023-06-25T08:38:06.918Z,4.37
2023-06-25T08:40:37.838Z,4.80
2023-06-25T08:43:05.795Z,4.60
2023-06-25T08:45:33.992Z,4.87
2023-06-25T08:48:05.267Z,4.33
2023-06-25T08:50:33.451Z,4.30
2023-06-25T08:53:02.821Z,4.47
2023-06-25T08:55:31.425Z,4.57
2023-06-25T08:57:59.232Z,4.32
2023-06-25T09:00:27.344Z,3.97
2023-06-25T09:02:56.523Z,4.00
2023-06-25T09:05:27.083Z,4.63
2023-06-25T09:07:55.796Z,4.10
2023-06-25T09:10:25.040Z,4.18
2023-06-25T09:12:53.127Z,4.50
2023-06-25T09:15:22.208Z,4.27
2023-06-25T09:17:50.557Z,4.32
2023-06-25T09:20:18.705Z,6.20
2023-06-25T09:22:53.858Z,5.45
2023-06-25T09:25:29.221Z,4.45
2023-06-25T09:27:58.342Z,4.40
2023-06-25T09:30:27.403Z,4.72
2023-06-25T09:32:57.140Z,4.47
2023-06-25T09:35:29.954Z,4.40
2023-06-25T09:37:57.689Z,4.70
2023-06-25T09:40:27.514Z,4.38
2023-06-25T09:42:56.711Z,5.53
2023-06-25T09:45:26.272Z,4.20
2023-06-25T09:47:55.546Z,6.00
2023-06-25T09:50:29.366Z,5.47
2023-06-25T09:52:58.927Z,4.32
2023-06-25T09:55:30.046Z,4.38
2023-06-25T09:57:58.796Z,4.45
2023-06-25T10:00:27.235Z,4.15
2023-06-25T10:02:56.226Z,5.25
2023-06-25T10:05:24.475Z,4.90
2023-06-25T10:07:53.743Z,3.65
2023-06-25T10:10:23.645Z,4.35
2023-06-25T10:12:54.128Z,4.00
2023-06-25T10:15:33.202Z,4.10
2023-06-25T10:18:02.159Z,3.90
2023-06-25T10:20:31.956Z,4.00
2023-06-25T10:23:10.397Z,3.95
2023-06-25T10:25:41.735Z,4.13
2023-06-25T10:28:15.201Z,3.90
2023-06-25T10:30:48.609Z,4.50
2023-06-25T10:33:18.158Z,4.07
2023-06-25T10:35:50.637Z,4.45
2023-06-25T10:38:18.757Z,4.35
2023-06-25T10:40:47.897Z,4.13
2023-06-25T10:43:20.308Z,4.05
2023-06-25T10:45:52.534Z,3.75
2023-06-25T10:48:20.897Z,3.67
2023-06-25T10:50:49.345Z,4.38
2023-06-25T10:53:19.656Z,4.18
2023-06-25T10:55:49.558Z,4.35
2023-06-25T10:58:19.491Z,3.67
2023-06-25T11:00:48.263Z,3.75
2023-06-25T11:03:16.951Z,4.88
2023-06-25T11:05:46.455Z,4.18
2023-06-25T11:08:16.317Z,4.10
2023-06-25T11:10:46.049Z,4.35
2023-06-25T11:13:15.155Z,4.03
2023-06-25T11:15:46.135Z,4.05
2023-06-25T11:18:14.243Z,4.38
2023-06-25T11:20:45.092Z,3.75
2023-06-25T11:23:16.315Z,4.22
2023-06-25T11:25:45.403Z,3.90
2023-06-25T11:28:15.802Z,5.10
2023-06-25T11:30:47.846Z,3.80
2023-06-25T11:33:19.689Z,4.10
2023-06-25T11:35:51.975Z,4.40
2023-06-25T11:38:27.402Z,3.83
2023-06-25T11:40:55.468Z,3.65
2023-06-25T11:43:25.368Z,4.10
2023-06-25T11:45:54.900Z,4.40
2023-06-25T11:48:23.454Z,4.38
2023-06-25T11:50:53.406Z,3.78
2023-06-25T11:53:21.103Z,4.10
2023-06-25T11:55:49.568Z,3.92
2023-06-25T11:58:17.801Z,4.60
2023-06-25T12:00:45.623Z,3.97
2023-06-25T12:03:15.613Z,4.47
2023-06-25T12:05:43.357Z,4.10
2023-06-25T12:08:11.491Z,4.97
2023-06-25T12:10:40.597Z,3.92
2023-06-25T12:13:08.365Z,3.90
2023-06-25T12:15:37.127Z,4.10
2023-06-25T12:18:06.768Z,4.05
2023-06-25T12:20:35.904Z,3.50
2023-06-25T12:23:03.835Z,3.72
2023-06-25T12:25:31.960Z,3.63
2023-06-25T12:28:00.676Z,3.67
2023-06-25T12:30:28.498Z,3.83
2023-06-25T12:32:57.160Z,4.25
2023-06-25T12:35:25.262Z,3.65
2023-06-25T12:37:55.793Z,3.88
2023-06-25T12:40:23.630Z,3.90
2023-06-25T12:42:51.614Z,3.80
2023-06-25T12:45:19.608Z,3.78
2023-06-25T12:47:48.070Z,3.83
2023-06-25T12:50:19.362Z,3.90
2023-06-25T12:52:48.964Z,3.38
2023-06-25T12:55:18.521Z,3.95
2023-06-25T12:57:46.282Z,3.60
2023-06-25T13:00:21.021Z,3.53
2023-06-25T13:03:01.608Z,4.00
2023-06-25T13:05:29.451Z,5.05
2023-06-25T13:07:57.452Z,3.75
2023-06-25T13:10:27.878Z,4.00
2023-06-25T13:12:56.787Z,4.10
2023-06-25T13:15:24.823Z,4.30
2023-06-25T13:17:53.814Z,3.55
2023-06-25T13:20:21.743Z,5.07
2023-06-25T13:22:49.670Z,4.20
2023-06-25T13:25:17.674Z,4.13
2023-06-25T13:27:48.822Z,4.38
2023-06-25T13:30:16.927Z,4.18
2023-06-25T13:32:45.021Z,4.13
2023-06-25T13:35:12.865Z,4.30
2023-06-25T13:37:40.564Z,4.35
2023-06-25T13:40:09.586Z,4.57
2023-06-25T13:42:37.408Z,4.47
2023-06-25T13:45:09.245Z,4.95
2023-06-25T13:47:37.401Z,5.20
2023-06-25T13:50:07.965Z,4.63
2023-06-25T13:52:35.759Z,5.05
2023-06-25T13:55:03.996Z,4.20
2023-06-25T13:57:31.962Z,4.65
2023-06-25T14:00:00.173Z,4.72
2023-06-25T14:02:29.331Z,4.65
2023-06-25T14:04:57.149Z,5.03
2023-06-25T14:07:24.921Z,5.15
2023-06-25T14:09:53.781Z,5.13
2023-06-25T14:12:21.489Z,5.10
2023-06-25T14:14:49.237Z,5.50
2023-06-25T14:17:17.034Z,5.95
2023-06-25T14:19:46.795Z,5.10
2023-06-25T14:22:14.539Z,5.40
2023-06-25T14:24:42.265Z,4.90
2023-06-25T14:27:10.280Z,4.00
2023-06-25T14:29:38.220Z,4.70
2023-06-25T14:32:06.521Z,4.78
2023-06-25T14:34:34.563Z,4.22
2023-06-25T14:37:04.180Z,4.95
2023-06-25T14:39:31.886Z,4.88
2023-06-25T14:41:59.695Z,4.95
2023-06-25T14:44:27.482Z,4.93
2023-06-25T14:46:55.549Z,5.07
2023-06-25T14:49:23.797Z,5.53
2023-06-25T14:51:52.784Z,8.23
2023-06-25T14:54:22.184Z,5.40
2023-06-25T14:56:50.130Z,5.25
2023-06-25T14:59:18.223Z,5.75
2023-06-25T15:01:46.210Z,6.30
2023-06-25T15:04:14.439Z,6.72
2023-06-25T15:06:46.091Z,5.82
2023-06-25T15:09:14.347Z,6.43
2023-06-25T15:11:44.762Z,6.57
2023-06-25T15:14:12.592Z,6.53
2023-06-25T15:16:40.760Z,7.47
2023-06-25T15:19:08.943Z,7.32
2023-06-25T15:21:36.594Z,6.93
2023-06-25T15:24:04.566Z,6.80
2023-06-25T15:26:32.308Z,7.05
2023-06-25T15:29:01.525Z,7.03
2023-06-25T15:31:29.587Z,7.25
2023-06-25T15:33:58.337Z,7.43
2023-06-25T15:36:27.014Z,7.20
2023-06-25T15:38:54.996Z,7.25
2023-06-25T15:41:22.885Z,6.88
2023-06-25T15:43:50.564Z,7.43
2023-06-25T15:46:21.212Z,6.78
2023-06-25T15:48:49.442Z,7.40
2023-06-25T15:51:17.720Z,7.00
2023-06-25T15:53:46.672Z,7.35
2023-06-25T15:56:14.742Z,6.65
2023-06-25T15:58:42.580Z,6.88
2023-06-25T16:01:10.478Z,6.82
2023-06-25T16:03:40.208Z,6.53
2023-06-25T16:06:08.286Z,7.25
2023-06-25T16:08:35.977Z,6.70
2023-06-25T16:11:03.975Z,6.95
2023-06-25T16:13:31.722Z,7.40
2023-06-25T16:15:59.504Z,6.45
2023-06-25T16:18:27.480Z,6.53
2023-06-25T16:20:56.760Z,7.15
2023-06-25T16:23:24.617Z,7.10
2023-06-25T16:25:52.718Z,7.68
2023-06-25T16:28:22.510Z,7.50
2023-06-25T16:30:50.203Z,8.63
2023-06-25T16:33:18.537Z,10.00
2023-06-25T16:35:46.759Z,11.13
2023-06-25T16:38:16.290Z,12.45
2023-06-25T16:40:45.559Z,11.75
2023-06-25T16:43:13.553Z,14.85
2023-06-25T16:45:41.285Z,12.95
2023-06-25T16:48:09.510Z,12.05
2023-06-25T16:50:37.484Z,11.35
2023-06-25T16:53:05.111Z,9.30
2023-06-25T16:55:34.924Z,11.07
2023-06-25T16:58:04.536Z,10.93
2023-06-25T17:00:32.642Z,11.40
2023-06-25T17:03:00.626Z,13.32
2023-06-25T17:05:28.784Z,9.85
2023-06-25T17:07:56.621Z,10.40
2023-06-25T17:10:24.452Z,9.23
2023-06-25T17:12:53.793Z,8.32
2023-06-25T17:15:21.674Z,8.35
2023-06-25T17:17:50.237Z,7.70
2023-06-25T17:20:18.111Z,6.90
2023-06-25T17:22:45.798Z,7.00
2023-06-25T17:25:13.569Z,6.43
2023-06-25T17:27:41.416Z,6.00
2023-06-25T17:30:11.967Z,4.97
2023-06-25T17:32:40.367Z,4.75
2023-06-25T17:35:08.820Z,5.22
2023-06-25T17:37:36.876Z,4.47
2023-06-25T17:40:05.072Z,4.63
2023-06-25T17:42:33.300Z,4.57
2023-06-25T17:45:01.097Z,5.38
2023-06-25T17:47:30.369Z,6.03
2023-06-25T17:49:58.692Z,5.57
2023-06-25T17:52:26.634Z,5.63
2023-06-25T17:54:54.416Z,5.78
2023-06-25T17:57:22.540Z,5.07
2023-06-25T17:59:50.458Z,5.85
2023-06-25T18:02:18.707Z,5.28
2023-06-25T18:04:48.211Z,5.80
2023-06-25T18:07:16.373Z,5.00
2023-06-25T18:09:44.158Z,6.20
2023-06-25T18:12:13.554Z,5.45
2023-06-25T18:14:42.566Z,5.28
2023-06-25T18:17:10.789Z,4.90
2023-06-25T18:19:38.779Z,5.13
2023-06-25T18:22:08.241Z,4.50
2023-06-25T18:24:36.829Z,4.32
2023-06-25T18:27:04.883Z,4.25
2023-06-25T18:29:32.935Z,4.25
2023-06-25T18:32:00.963Z,4.13
2023-06-25T18:34:28.942Z,4.22
2023-06-25T18:36:56.998Z,4.45
2023-06-25T18:39:26.385Z,3.97
2023-06-25T18:41:54.177Z,4.60
2023-06-25T18:44:22.006Z,4.30
2023-06-25T18:46:50.712Z,3.80
2023-06-25T18:49:19.999Z,3.92
2023-06-25T18:51:47.758Z,3.95
2023-06-25T18:54:15.937Z,3.92
2023-06-25T18:56:45.565Z,3.80
2023-06-25T18:59:16.028Z,4.00
2023-06-25T19:01:43.810Z,3.58
2023-06-25T19:04:13.993Z,4.82
2023-06-25T19:06:42.472Z,3.75
2023-06-25T19:09:12.484Z,3.58
2023-06-25T19:11:40.312Z,3.72
2023-06-25T19:14:10.206Z,4.05
2023-06-25T19:16:38.242Z,3.80
2023-06-25T19:19:06.077Z,4.13
2023-06-25T19:21:33.970Z,3.42
2023-06-25T19:24:01.779Z,3.90
2023-06-25T19:26:30.172Z,3.65
2023-06-25T19:28:58.027Z,3.83
2023-06-25T19:31:28.281Z,3.65
2023-06-25T19:33:56.369Z,3.55
2023-06-25T19:36:26.415Z,3.72
2023-06-25T19:38:54.231Z,4.07
2023-06-25T19:41:22.071Z,3.85
2023-06-25T19:43:50.144Z,4.00
2023-06-25T19:46:17.922Z,3.83
2023-06-25T19:48:47.226Z,4.05
2023-06-25T19:51:15.271Z,3.90
2023-06-25T19:53:43.053Z,3.97
2023-06-25T19:56:13.873Z,6.10
2023-06-25T19:58:42.274Z,5.22
2023-06-25T20:01:10.096Z,4.43
2023-06-25T20:03:38.256Z,4.35
2023-06-25T20:06:07.700Z,4.38
2023-06-25T20:08:37.333Z,4.10
2023-06-25T20:11:05.180Z,6.32
2023-06-25T20:13:34.530Z,4.63
2023-06-25T20:16:03.306Z,4.97
2023-06-25T20:18:31.244Z,4.38
2023-06-25T20:21:00.325Z,4.22
2023-06-25T20:23:29.965Z,5.07
2023-06-25T20:25:58.092Z,4.47
2023-06-25T20:28:25.864Z,4.07
2023-06-25T20:30:55.090Z,4.10
2023-06-25T20:33:22.856Z,4.78
2023-06-25T20:35:50.746Z,4.22
2023-06-25T20:38:20.412Z,4.22
2023-06-25T20:40:49.477Z,4.55
2023-06-25T20:43:17.400Z,4.45
2023-06-25T20:45:45.766Z,4.53
2023-06-25T20:48:14.417Z,4.25
2023-06-25T20:50:42.508Z,6.22
2023-06-25T20:53:11.601Z,4.25
2023-06-25T20:55:39.640Z,4.32
2023-06-25T20:58:09.742Z,4.55
2023-06-25T21:00:39.870Z,4.45
2023-06-25T21:03:07.944Z,4.30
2023-06-25T21:05:35.841Z,4.65
2023-06-25T21:08:05.612Z,4.95
2023-06-25T21:10:33.730Z,4.93
2023-06-25T21:13:01.643Z,4.45
2023-06-25T21:15:31.310Z,5.05
2023-06-25T21:17:59.215Z,5.10
2023-06-25T21:20:27.422Z,7.05
2023-06-25T21:22:55.600Z,4.72
2023-06-25T21:25:23.290Z,4.88
2023-06-25T21:27:51.088Z,5.10
2023-06-25T21:30:18.836Z,5.07
2023-06-25T21:32:48.444Z,4.63
2023-06-25T21:35:17.195Z,4.93
2023-06-25T21:37:45.032Z,4.35
2023-06-25T21:40:12.848Z,4.40
2023-06-25T21:42:40.983Z,4.68
2023-06-25T21:45:09.716Z,5.95
2023-06-25T21:47:37.498Z,5.10
2023-06-25T21:50:08.110Z,5.15
2023-06-25T21:52:35.765Z,5.45
2023-06-25T21:55:04.280Z,5.30
2023-06-25T21:57:31.980Z,5.15
2023-06-25T21:59:59.885Z,5.90
2023-06-25T22:02:27.635Z,5.75
2023-06-25T22:04:56.336Z,5.43
2023-06-25T22:07:26.923Z,6.20
2023-06-25T22:09:55.151Z,6.07
2023-06-25T22:12:22.905Z,5.63
2023-06-25T22:14:51.173Z,5.53
2023-06-25T22:17:19.407Z,5.38
2023-06-25T22:19:47.522Z,5.07
2023-06-25T22:22:15.328Z,5.65
2023-06-25T22:24:44.715Z,5.78
2023-06-25T22:27:12.671Z,5.60
2023-06-25T22:29:42.909Z,5.30
2023-06-25T22:32:13.039Z,5.47
2023-06-25T22:34:41.100Z,5.73
2023-06-25T22:37:09.124Z,5.83
2023-06-25T22:39:36.788Z,5.50
2023-06-25T22:42:07.290Z,5.63
2023-06-25T22:44:35.317Z,5.57
2023-06-25T22:47:03.097Z,5.20
2023-06-25T22:49:33.136Z,5.70
2023-06-25T22:52:01.540Z,5.73
2023-06-25T22:54:29.367Z,5.83
2023-06-25T22:56:57.379Z,6.03
2023-06-25T22:59:26.877Z,5.63
2023-06-25T23:01:54.753Z,6.00
2023-06-25T23:04:22.551Z,5.13
2023-06-25T23:06:50.751Z,5.63
2023-06-25T23:09:19.478Z,5.73
2023-06-25T23:11:47.151Z,5.37
2023-06-25T23:14:15.122Z,6.20
2023-06-25T23:16:44.345Z,6.07
2023-06-25T23:19:12.105Z,5.93
2023-06-25T23:21:46.444Z,5.77
2023-06-25T23:24:14.569Z,5.67
2023-06-25T23:26:47.829Z,6.17
2023-06-25T23:29:18.350Z,5.93
2023-06-25T23:31:47.887Z,5.63
2023-06-25T23:34:15.722Z,5.20
2023-06-25T23:36:43.765Z,5.83
2023-06-25T23:39:11.923Z,5.57
2023-06-25T23:41:40.325Z,6.03
2023-06-25T23:44:08.098Z,5.80
2023-06-25T23:46:36.215Z,6.10
2023-06-25T23:49:06.584Z,5.93
2023-06-25T23:51:34.636Z,6.13
2023-06-25T23:54:02.478Z,5.70
2023-06-25T23:56:30.425Z,5.80
2023-06-25T23:58:58.159Z,5.63
